createdAt,value
2018-04-01T00:01:29.778Z,94.20
2018-04-01T00:03:56.874Z,94.30
2018-04-01T00:06:23.929Z,94.30
2018-04-01T00:08:50.965Z,94.40
2018-04-01T00:11:18.017Z,94.70
2018-04-01T00:13:45.098Z,94.50
2018-04-01T00:16:12.173Z,94.50
2018-04-01T00:18:39.217Z,94.60
2018-04-01T00:21:06.303Z,94.50
2018-04-01T00:23:33.427Z,94.50
2018-04-01T00:26:00.424Z,94.40
2018-04-01T00:28:27.482Z,94.30
2018-04-01T00:30:55.284Z,94.40
2018-04-01T00:33:22.401Z,94.40
2018-04-01T00:35:49.421Z,94.60
2018-04-01T00:38:16.463Z,94.60
2018-04-01T00:40:43.496Z,94.50
2018-04-01T00:43:10.545Z,94.40
2018-04-01T00:45:37.572Z,94.60
2018-04-01T00:48:04.608Z,94.60
2018-04-01T00:50:31.641Z,94.70
2018-04-01T00:52:58.684Z,94.60
2018-04-01T00:55:25.719Z,94.70
2018-04-01T00:57:52.784Z,94.50
2018-04-01T01:00:19.813Z,94.50
2018-04-01T01:02:47.625Z,94.40
2018-04-01T01:05:14.758Z,94.60
2018-04-01T01:07:41.807Z,94.60
2018-04-01T01:10:08.840Z,94.60
2018-04-01T01:12:35.881Z,94.50
2018-04-01T01:15:02.905Z,94.50
2018-04-01T01:17:29.967Z,94.70
2018-04-01T01:19:57.025Z,94.60
2018-04-01T01:22:24.072Z,94.70
2018-04-01T01:24:51.134Z,94.80
2018-04-01T01:27:18.191Z,94.80
2018-04-01T01:29:45.221Z,94.70
2018-04-01T01:32:13.024Z,94.70
2018-04-01T01:34:40.068Z,94.70
2018-04-01T01:37:07.109Z,94.70
2018-04-01T01:39:34.134Z,94.60
2018-04-01T01:42:01.175Z,94.70
2018-04-01T01:44:28.208Z,94.80
2018-04-01T01:46:55.275Z,94.90
2018-04-01T01:49:22.295Z,94.80
2018-04-01T01:51:49.328Z,95.10
2018-04-01T01:54:17.859Z,94.80
2018-04-01T01:56:44.916Z,94.80
2018-04-01T01:59:11.947Z,95.00
2018-04-01T02:01:38.963Z,94.90
2018-04-01T02:04:06.002Z,94.70
2018-04-01T02:06:33.070Z,94.70
2018-04-01T02:09:00.892Z,94.80
2018-04-01T02:11:28.039Z,94.80
2018-04-01T02:13:55.096Z,94.90
2018-04-01T02:16:22.884Z,94.90
2018-04-01T02:18:49.925Z,94.90
2018-04-01T02:21:16.944Z,94.70
2018-04-01T02:23:44.757Z,94.70
2018-04-01T02:26:12.563Z,94.80
2018-04-01T02:28:39.598Z,94.80
2018-04-01T02:31:06.624Z,94.60
2018-04-01T02:33:33.660Z,94.60
2018-04-01T02:36:00.687Z,94.60
2018-04-01T02:38:27.740Z,94.60
2018-04-01T02:40:54.765Z,94.70
2018-04-01T02:43:21.853Z,94.50
2018-04-01T02:45:48.885Z,94.60
2018-04-01T02:48:15.924Z,94.60
2018-04-01T02:50:42.952Z,94.60
2018-04-01T02:53:09.994Z,94.60
2018-04-01T02:55:37.025Z,94.60
2018-04-01T02:58:04.072Z,94.60
2018-04-01T03:00:31.101Z,94.40
2018-04-01T03:02:58.159Z,94.20
2018-04-01T03:05:25.190Z,94.40
2018-04-01T03:07:52.224Z,94.40
2018-04-01T03:10:19.268Z,94.30
2018-04-01T03:12:47.096Z,94.40
2018-04-01T03:15:14.111Z,94.30
2018-04-01T03:17:41.151Z,94.30
2018-04-01T03:20:08.167Z,94.40
2018-04-01T03:22:35.224Z,94.50
2018-04-01T03:25:02.239Z,94.50
2018-04-01T03:27:29.287Z,94.50
2018-04-01T03:29:56.299Z,94.60
2018-04-01T03:32:23.319Z,94.60
2018-04-01T03:34:50.357Z,94.50
2018-04-01T03:37:17.390Z,94.50
2018-04-01T03:39:44.442Z,94.60
2018-04-01T03:42:11.461Z,94.60
2018-04-01T03:44:38.493Z,94.50
2018-04-01T03:47:05.608Z,94.60
2018-04-01T03:49:32.665Z,94.50
2018-04-01T03:51:59.679Z,94.50
2018-04-01T03:54:26.744Z,94.40
2018-04-01T03:56:53.759Z,94.40
2018-04-01T03:59:20.796Z,94.40
2018-04-01T04:01:47.816Z,94.50
2018-04-01T04:04:14.854Z,94.50
2018-04-01T04:06:41.872Z,94.50
2018-04-01T04:09:09.100Z,94.60
2018-04-01T04:11:36.886Z,94.80
2018-04-01T04:14:03.922Z,94.80
2018-04-01T04:16:30.943Z,94.80
2018-04-01T04:18:57.980Z,94.90
2018-04-01T04:21:25.003Z,95.00
2018-04-01T04:23:52.041Z,95.00
2018-04-01T04:26:19.086Z,95.00
2018-04-01T04:28:46.196Z,95.10
2018-04-01T04:31:13.211Z,95.20
2018-04-01T04:33:41.032Z,95.20
2018-04-01T04:36:08.059Z,95.20
2018-04-01T04:38:35.095Z,95.10
2018-04-01T04:41:02.112Z,95.20
2018-04-01T04:43:29.151Z,95.30
2018-04-01T04:45:56.168Z,95.40
2018-04-01T04:48:23.202Z,95.40
2018-04-01T04:50:50.224Z,95.40
2018-04-01T04:53:17.271Z,95.40
2018-04-01T04:55:44.294Z,95.30
2018-04-01T04:58:11.355Z,95.30
2018-04-01T05:00:39.897Z,95.30
2018-04-01T05:03:06.923Z,95.30
2018-04-01T05:05:33.965Z,95.30
2018-04-01T05:08:00.980Z,95.30
2018-04-01T05:10:28.036Z,95.40
2018-04-01T05:12:55.060Z,95.40
2018-04-01T05:15:22.099Z,95.20
2018-04-01T05:17:49.152Z,95.30
2018-04-01T05:20:16.191Z,95.20
2018-04-01T05:22:43.982Z,95.20
2018-04-01T05:25:11.017Z,95.10
2018-04-01T05:27:38.058Z,95.00
2018-04-01T05:30:05.095Z,95.00
2018-04-01T05:32:32.140Z,94.90
2018-04-01T05:34:59.208Z,94.70
2018-04-01T05:37:26.611Z,94.70
2018-04-01T05:39:53.658Z,94.60
2018-04-01T05:42:20.688Z,94.50
2018-04-01T05:44:47.720Z,94.50
2018-04-01T05:47:14.748Z,94.30
2018-04-01T05:49:41.784Z,94.20
2018-04-01T05:52:08.795Z,94.10
2018-04-01T05:54:35.841Z,94.20
2018-04-01T05:57:02.860Z,93.90
2018-04-01T05:59:29.887Z,94.00
2018-04-01T06:01:56.946Z,93.90
2018-04-01T06:04:23.992Z,93.80
2018-04-01T06:06:51.049Z,93.80
2018-04-01T06:09:18.071Z,93.70
2018-04-01T06:11:45.092Z,93.70
2018-04-01T06:14:12.900Z,93.60
2018-04-01T06:16:39.932Z,93.60
2018-04-01T06:19:06.968Z,93.70
2018-04-01T06:21:33.996Z,93.60
2018-04-01T06:24:01.033Z,93.50
2018-04-01T06:26:28.076Z,93.40
2018-04-01T06:28:55.111Z,93.50
2018-04-01T06:31:22.142Z,93.70
2018-04-01T06:33:49.176Z,93.90
2018-04-01T06:36:16.208Z,93.60
2018-04-01T06:38:43.232Z,93.30
2018-04-01T06:41:10.268Z,93.30
2018-04-01T06:43:37.299Z,93.80
2018-04-01T06:46:04.360Z,93.40
2018-04-01T06:48:31.388Z,93.50
2018-04-01T06:50:59.196Z,93.60
2018-04-01T06:53:26.275Z,93.30
2018-04-01T06:55:53.316Z,93.30
2018-04-01T06:58:21.952Z,93.30
2018-04-01T07:00:48.984Z,93.30
2018-04-01T07:03:16.171Z,93.10
2018-04-01T07:05:43.972Z,93.10
2018-04-01T07:08:11.002Z,93.10
2018-04-01T07:10:38.044Z,93.20
2018-04-01T07:13:05.065Z,93.20
2018-04-01T07:15:32.119Z,93.10
2018-04-01T07:17:59.153Z,93.20
2018-04-01T07:20:26.204Z,93.20
2018-04-01T07:22:53.240Z,93.10
2018-04-01T07:25:20.275Z,93.10
2018-04-01T07:27:48.097Z,93.10
2018-04-01T07:30:15.140Z,92.80
2018-04-01T07:32:42.161Z,92.50
2018-04-01T07:35:09.973Z,92.40
2018-04-01T07:37:36.988Z,92.40
2018-04-01T07:40:04.915Z,92.50
2018-04-01T07:42:33.097Z,92.60
2018-04-01T07:45:00.152Z,92.60
2018-04-01T07:47:27.193Z,92.50
2018-04-01T07:49:54.240Z,92.10
2018-04-01T07:52:21.305Z,92.30
2018-04-01T07:54:48.338Z,92.40
2018-04-01T07:57:15.396Z,92.30
2018-04-01T07:59:42.469Z,92.30
2018-04-01T08:02:09.514Z,92.30
2018-04-01T08:04:36.529Z,92.30
2018-04-01T08:07:03.555Z,92.40
2018-04-01T08:09:30.571Z,92.40
2018-04-01T08:11:57.608Z,92.10
2018-04-01T08:14:24.635Z,92.50
2018-04-01T08:16:51.669Z,92.30
2018-04-01T08:19:18.691Z,92.30
2018-04-01T08:21:45.731Z,92.50
2018-04-01T08:24:12.749Z,92.50
2018-04-01T08:26:40.548Z,92.50
2018-04-01T08:29:07.573Z,92.40
2018-04-01T08:31:34.604Z,92.60
2018-04-01T08:34:01.620Z,92.70
2018-04-01T08:36:28.660Z,92.80
2018-04-01T08:38:55.692Z,92.80
2018-04-01T08:41:22.744Z,92.50
2018-04-01T08:43:49.840Z,92.60
2018-04-01T08:46:16.917Z,92.70
2018-04-01T08:48:43.936Z,92.80
2018-04-01T08:51:10.984Z,93.00
2018-04-01T08:53:37.997Z,92.90
2018-04-01T08:56:05.035Z,92.80
2018-04-01T08:58:32.059Z,92.90
2018-04-01T09:00:59.219Z,92.80
2018-04-01T09:03:26.433Z,92.80
2018-04-01T09:05:53.472Z,92.80
2018-04-01T09:08:20.482Z,92.80
2018-04-01T09:10:47.524Z,92.70
2018-04-01T09:13:14.559Z,92.70
2018-04-01T09:15:41.629Z,92.60
2018-04-01T09:18:08.652Z,92.40
2018-04-01T09:20:35.714Z,92.70
2018-04-01T09:23:03.504Z,92.70
2018-04-01T09:25:30.561Z,92.70
2018-04-01T09:27:57.600Z,92.80
2018-04-01T09:30:24.745Z,92.50
2018-04-01T09:32:51.788Z,92.50
2018-04-01T09:35:18.807Z,92.50
2018-04-01T09:37:45.845Z,92.40
2018-04-01T09:40:13.629Z,92.00
2018-04-01T09:42:40.704Z,92.00
2018-04-01T09:45:07.751Z,92.00
2018-04-01T09:47:34.788Z,92.30
2018-04-01T09:50:01.812Z,92.30
2018-04-01T09:52:28.857Z,92.30
2018-04-01T09:54:56.200Z,92.30
2018-04-01T09:57:23.248Z,92.50
2018-04-01T09:59:51.048Z,92.50
2018-04-01T10:02:18.576Z,92.50
2018-04-01T10:04:46.093Z,92.20
2018-04-01T10:07:14.504Z,92.20
2018-04-01T10:09:43.539Z,92.00
2018-04-01T10:12:11.832Z,92.30
2018-04-01T10:14:39.343Z,92.30
2018-04-01T10:17:07.440Z,92.20
2018-04-01T10:19:34.955Z,92.10
2018-04-01T10:22:02.505Z,92.00
2018-04-01T10:24:30.029Z,91.90
2018-04-01T10:26:57.604Z,91.60
2018-04-01T10:29:25.127Z,91.30
2018-04-01T10:31:52.660Z,91.60
2018-04-01T10:34:20.944Z,91.40
2018-04-01T10:36:48.472Z,91.40
2018-04-01T10:39:15.984Z,91.40
2018-04-01T10:41:43.516Z,91.50
2018-04-01T10:44:11.019Z,91.20
2018-04-01T10:46:38.730Z,91.50
2018-04-01T10:49:06.222Z,91.50
2018-04-01T10:51:33.751Z,91.20
2018-04-01T10:54:00.780Z,91.10
2018-04-01T10:56:27.849Z,91.50
2018-04-01T10:58:54.930Z,91.40
2018-04-01T11:01:23.457Z,91.20
2018-04-01T11:03:50.534Z,91.10
2018-04-01T11:06:17.572Z,91.40
2018-04-01T11:08:44.624Z,91.20
2018-04-01T11:11:11.680Z,91.00
2018-04-01T11:13:38.721Z,91.00
2018-04-01T11:16:05.803Z,91.20
2018-04-01T11:18:32.843Z,91.20
2018-04-01T11:20:59.906Z,91.60
2018-04-01T11:23:26.949Z,92.20
2018-04-01T11:25:53.977Z,91.40
2018-04-01T11:28:21.095Z,91.50
2018-04-01T11:30:48.109Z,92.00
2018-04-01T11:33:15.168Z,92.10
2018-04-01T11:35:42.194Z,92.10
2018-04-01T11:38:09.223Z,92.20
2018-04-01T11:40:36.239Z,92.40
2018-04-01T11:43:03.267Z,92.40
2018-04-01T11:45:30.362Z,92.50
2018-04-01T11:47:59.837Z,92.60
2018-04-01T11:50:26.864Z,92.60
2018-04-01T11:52:53.914Z,92.30
2018-04-01T11:55:20.944Z,92.60
2018-04-01T11:57:47.980Z,92.70
2018-04-01T12:00:15.010Z,92.50
2018-04-01T12:02:42.045Z,92.60
2018-04-01T12:05:09.124Z,92.60
2018-04-01T12:07:36.223Z,92.10
2018-04-01T12:10:03.241Z,92.50
2018-04-01T12:12:31.047Z,91.80
2018-04-01T12:14:58.060Z,91.80
2018-04-01T12:17:25.108Z,92.00
2018-04-01T12:19:52.634Z,91.50
2018-04-01T12:22:19.731Z,91.60
2018-04-01T12:24:46.753Z,91.80
2018-04-01T12:27:13.783Z,91.90
2018-04-01T12:29:40.800Z,92.40
2018-04-01T12:32:07.840Z,92.20
2018-04-01T12:34:34.996Z,91.70
2018-04-01T12:37:02.801Z,91.20
2018-04-01T12:39:29.932Z,91.20
2018-04-01T12:41:56.956Z,91.20
2018-04-01T12:44:23.999Z,91.30
2018-04-01T12:46:51.023Z,91.20
2018-04-01T12:49:18.056Z,91.20
2018-04-01T12:51:45.092Z,91.20
2018-04-01T12:54:12.124Z,90.60
2018-04-01T12:56:39.139Z,91.10
2018-04-01T12:59:06.957Z,90.90
2018-04-01T13:01:33.975Z,91.00
2018-04-01T13:04:01.144Z,91.70
2018-04-01T13:06:28.931Z,91.10
2018-04-01T13:08:55.987Z,91.00
2018-04-01T13:11:23.027Z,91.70
2018-04-01T13:13:50.126Z,91.80
2018-04-01T13:16:17.160Z,91.70
2018-04-01T13:18:44.266Z,92.10
2018-04-01T13:21:11.260Z,92.00
2018-04-01T13:23:38.296Z,91.80
2018-04-01T13:26:05.319Z,92.10
2018-04-01T13:28:32.388Z,92.30
2018-04-01T13:30:59.398Z,92.50
2018-04-01T13:33:26.442Z,92.50
2018-04-01T13:35:54.250Z,92.30
2018-04-01T13:38:21.294Z,92.30
2018-04-01T13:40:48.308Z,92.60
2018-04-01T13:43:15.335Z,92.80
2018-04-01T13:45:42.384Z,92.80
2018-04-01T13:48:09.531Z,92.40
2018-04-01T13:50:36.628Z,92.20
2018-04-01T13:53:04.428Z,92.50
2018-04-01T13:55:31.480Z,92.50
2018-04-01T13:57:58.533Z,92.20
2018-04-01T14:00:26.340Z,92.30
2018-04-01T14:02:53.351Z,92.20
2018-04-01T14:05:20.450Z,92.20
2018-04-01T14:07:47.476Z,92.10
2018-04-01T14:10:15.273Z,92.10
2018-04-01T14:12:42.445Z,92.00
2018-04-01T14:15:09.503Z,92.10
2018-04-01T14:17:36.678Z,92.30
2018-04-01T14:20:03.724Z,92.40
2018-04-01T14:22:30.742Z,92.50
2018-04-01T14:24:57.785Z,92.40
2018-04-01T14:27:24.864Z,92.60
2018-04-01T14:29:51.915Z,92.50
2018-04-01T14:32:18.979Z,92.60
2018-04-01T14:34:46.012Z,92.90
2018-04-01T14:37:13.037Z,92.80
2018-04-01T14:39:40.088Z,93.10
2018-04-01T14:42:07.112Z,93.10
2018-04-01T14:44:34.139Z,93.00
2018-04-01T14:47:01.160Z,93.20
2018-04-01T14:49:29.191Z,93.10
2018-04-01T14:51:56.212Z,93.30
2018-04-01T14:54:24.126Z,93.30
2018-04-01T14:56:51.195Z,93.30
2018-04-01T14:59:18.994Z,93.10
2018-04-01T15:01:46.015Z,93.10
2018-04-01T15:04:13.135Z,93.10
2018-04-01T15:06:40.161Z,93.00
2018-04-01T15:09:07.214Z,92.90
2018-04-01T15:11:34.237Z,92.90
2018-04-01T15:14:01.288Z,93.10
2018-04-01T15:16:28.326Z,93.30
2018-04-01T15:18:55.380Z,93.60
2018-04-01T15:21:22.399Z,93.80
2018-04-01T15:23:49.420Z,93.60
2018-04-01T15:26:16.465Z,93.20
2018-04-01T15:28:43.520Z,93.30
2018-04-01T15:31:10.584Z,93.10
2018-04-01T15:33:37.620Z,93.30
2018-04-01T15:36:04.940Z,93.40
2018-04-01T15:38:32.727Z,93.30
2018-04-01T15:40:59.770Z,93.30
2018-04-01T15:43:26.836Z,93.60
2018-04-01T15:45:53.883Z,93.60
2018-04-01T15:48:21.668Z,93.90
2018-04-01T15:50:48.707Z,93.90
2018-04-01T15:53:15.727Z,93.70
2018-04-01T15:55:42.763Z,93.80
2018-04-01T15:58:09.784Z,93.60
2018-04-01T16:00:36.835Z,93.50
2018-04-01T16:03:03.863Z,93.60
2018-04-01T16:05:30.965Z,93.40
2018-04-01T16:07:58.848Z,93.50
2018-04-01T16:10:25.927Z,93.50
2018-04-01T16:12:52.948Z,93.60
2018-04-01T16:15:19.983Z,93.70
2018-04-01T16:17:47.000Z,93.60
2018-04-01T16:20:14.038Z,93.50
2018-04-01T16:22:41.083Z,93.60
2018-04-01T16:25:08.140Z,93.50
2018-04-01T16:27:35.925Z,93.70
2018-04-01T16:30:02.968Z,93.60
2018-04-01T16:32:29.995Z,93.90
2018-04-01T16:34:57.027Z,93.70
2018-04-01T16:37:24.092Z,94.00
2018-04-01T16:39:51.283Z,93.60
2018-04-01T16:42:18.309Z,93.50
2018-04-01T16:44:45.388Z,93.70
2018-04-01T16:47:12.416Z,93.60
2018-04-01T16:49:39.432Z,93.60
2018-04-01T16:52:06.488Z,93.60
2018-04-01T16:54:33.515Z,93.70
2018-04-01T16:57:00.565Z,93.50
2018-04-01T16:59:27.628Z,93.70
2018-04-01T17:01:55.430Z,93.50
2018-04-01T17:04:22.467Z,93.50
2018-04-01T17:06:49.504Z,93.50
2018-04-01T17:09:16.565Z,93.50
2018-04-01T17:11:43.580Z,93.60
2018-04-01T17:14:10.684Z,93.50
2018-04-01T17:16:37.725Z,93.80
2018-04-01T17:19:04.748Z,93.80
2018-04-01T17:21:31.796Z,93.60
2018-04-01T17:23:58.815Z,93.70
2018-04-01T17:26:25.844Z,93.80
2018-04-01T17:28:52.868Z,93.90
2018-04-01T17:31:19.903Z,94.10
2018-04-01T17:33:46.915Z,94.00
2018-04-01T17:36:14.012Z,94.00
2018-04-01T17:38:41.799Z,94.20
2018-04-01T17:41:08.839Z,93.90
2018-04-01T17:43:35.895Z,94.20
2018-04-01T17:46:02.923Z,94.00
2018-04-01T17:48:29.939Z,93.80
2018-04-01T17:50:56.985Z,93.80
2018-04-01T17:53:24.016Z,93.90
2018-04-01T17:55:51.084Z,94.20
2018-04-01T17:58:18.875Z,94.10
2018-04-01T18:00:45.927Z,94.10
2018-04-01T18:03:13.086Z,94.00
2018-04-01T18:05:41.026Z,94.10
2018-04-01T18:08:09.307Z,94.30
2018-04-01T18:10:36.332Z,94.30
2018-04-01T18:13:03.681Z,94.30
2018-04-01T18:15:30.707Z,94.30
2018-04-01T18:17:57.752Z,94.50
2018-04-01T18:20:25.548Z,94.20
2018-04-01T18:22:52.630Z,94.20
2018-04-01T18:25:19.656Z,94.30
2018-04-01T18:27:46.703Z,94.40
2018-04-01T18:30:15.228Z,94.20
2018-04-01T18:32:42.285Z,94.20
2018-04-01T18:35:09.310Z,94.30
2018-04-01T18:37:36.404Z,94.30
2018-04-01T18:40:04.196Z,94.40
2018-04-01T18:42:31.295Z,94.40
2018-04-01T18:44:58.318Z,94.30
2018-04-01T18:47:26.124Z,94.40
2018-04-01T18:49:53.223Z,94.40
2018-04-01T18:52:20.265Z,94.40
2018-04-01T18:54:47.334Z,94.50
2018-04-01T18:57:14.412Z,94.60
2018-04-01T18:59:41.483Z,94.70
2018-04-01T19:02:08.575Z,94.70
2018-04-01T19:04:35.634Z,94.70
2018-04-01T19:07:02.751Z,94.60
2018-04-01T19:09:29.833Z,94.50
2018-04-01T19:11:56.897Z,94.60
2018-04-01T19:14:24.742Z,94.40
2018-04-01T19:16:58.560Z,94.40
2018-04-01T19:19:26.093Z,94.40
2018-04-01T19:21:53.623Z,94.50
2018-04-01T19:24:21.902Z,94.50
2018-04-01T19:26:49.504Z,94.40
2018-04-01T19:29:17.024Z,94.50
2018-04-01T19:31:44.556Z,94.50
2018-04-01T19:34:12.107Z,94.60
2018-04-01T19:36:39.635Z,94.60
2018-04-01T19:39:07.155Z,94.50
2018-04-01T19:41:35.560Z,94.50
2018-04-01T19:44:03.091Z,94.40
2018-04-01T19:46:30.647Z,94.60
2018-04-01T19:48:58.284Z,94.60
2018-04-01T19:51:25.897Z,94.50
2018-04-01T19:53:54.262Z,94.40
2018-04-01T19:56:22.540Z,94.30
2018-04-01T19:58:50.100Z,94.30
2018-04-01T20:01:17.611Z,94.30
2018-04-01T20:03:45.952Z,94.30
2018-04-01T20:06:13.562Z,94.30
2018-04-01T20:08:41.100Z,94.30
2018-04-01T20:11:08.624Z,94.20
2018-04-01T20:13:36.156Z,94.30
2018-04-01T20:16:03.675Z,94.40
2018-04-01T20:18:31.220Z,94.30
2018-04-01T20:20:58.733Z,94.30
2018-04-01T20:23:26.265Z,94.30
2018-04-01T20:25:53.776Z,94.30
2018-04-01T20:28:21.462Z,94.40
2018-04-01T20:30:48.983Z,94.40
2018-04-01T20:33:16.519Z,94.30
2018-04-01T20:35:44.044Z,94.20
2018-04-01T20:38:13.052Z,94.10
2018-04-01T20:40:40.596Z,94.10
2018-04-01T20:43:08.123Z,94.20
2018-04-01T20:45:35.680Z,94.30
2018-04-01T20:48:03.214Z,94.20
2018-04-01T20:50:30.727Z,94.30
2018-04-01T20:52:58.260Z,94.20
2018-04-01T20:55:25.852Z,94.10
2018-04-01T20:57:53.387Z,94.30
2018-04-01T21:00:21.670Z,94.30
2018-04-01T21:02:49.206Z,94.30
2018-04-01T21:05:16.744Z,94.40
2018-04-01T21:07:44.257Z,94.30
2018-04-01T21:10:11.789Z,94.30
2018-04-01T21:12:39.305Z,94.30
2018-04-01T21:15:06.844Z,94.50
2018-04-01T21:17:34.369Z,94.50
2018-04-01T21:20:01.938Z,94.50
2018-04-01T21:22:30.270Z,94.50
2018-04-01T21:24:57.808Z,94.50
2018-04-01T21:27:26.107Z,94.40
2018-04-01T21:29:53.756Z,94.70
2018-04-01T21:32:21.281Z,94.40
2018-04-01T21:34:48.946Z,94.40
2018-04-01T21:37:16.455Z,94.10
2018-04-01T21:39:44.029Z,94.20
2018-04-01T21:42:11.551Z,94.20
2018-04-01T21:44:39.080Z,94.10
2018-04-01T21:47:07.371Z,93.80
2018-04-01T21:49:34.928Z,93.80
2018-04-01T21:52:02.494Z,93.80
2018-04-01T21:54:30.826Z,94.00
2018-04-01T21:56:58.391Z,93.80
2018-04-01T21:59:25.939Z,93.60
2018-04-01T22:01:53.464Z,93.50
2018-04-01T22:04:21.041Z,93.40
2018-04-01T22:06:48.600Z,93.30
2018-04-01T22:09:16.141Z,93.40
2018-04-01T22:11:44.466Z,93.20
2018-04-01T22:14:12.001Z,93.10
2018-04-01T22:16:39.530Z,92.90
2018-04-01T22:19:07.064Z,92.90
2018-04-01T22:21:34.598Z,92.80
2018-04-01T22:24:02.927Z,92.70
2018-04-01T22:26:30.868Z,92.70
2018-04-01T22:28:58.402Z,92.40
2018-04-01T22:31:25.968Z,92.50
2018-04-01T22:33:53.602Z,92.40
2018-04-01T22:36:21.119Z,92.30
2018-04-01T22:38:48.647Z,92.20
2018-04-01T22:41:16.170Z,92.00
2018-04-01T22:43:44.452Z,91.90
2018-04-01T22:46:11.984Z,91.80
2018-04-01T22:51:19.243Z,91.50
2018-04-01T22:53:46.755Z,91.50
2018-04-01T22:56:14.299Z,91.40
2018-04-01T22:58:41.832Z,91.40
2018-04-01T23:01:09.407Z,91.30
2018-04-01T23:03:36.943Z,91.30
2018-04-01T23:06:04.480Z,91.20
2018-04-01T23:08:32.131Z,91.40
2018-04-01T23:10:59.680Z,91.30
2018-04-01T23:13:27.213Z,91.10
2018-04-01T23:15:54.750Z,91.10
2018-04-01T23:18:22.275Z,91.10
2018-04-01T23:20:49.814Z,91.20
2018-04-01T23:23:17.332Z,91.10
2018-04-01T23:25:45.641Z,91.00
2018-04-01T23:28:13.148Z,91.00
2018-04-01T23:30:40.727Z,91.00
2018-04-01T23:33:08.260Z,91.00
2018-04-01T23:35:35.915Z,90.90
2018-04-01T23:38:03.468Z,91.10
2018-04-01T23:40:31.004Z,91.00
2018-04-01T23:42:58.521Z,91.00
2018-04-01T23:45:26.052Z,91.00
2018-04-01T23:47:54.335Z,91.20
2018-04-01T23:50:21.872Z,90.90
2018-04-01T23:52:49.407Z,91.10
2018-04-01T23:55:17.706Z,91.20
2018-04-01T23:57:45.219Z,91.20
